UMMS/MSQ METAR and TAF weather

Enter ICAO airport designator
Station Type Date Time Source
UMMS METAR 2021/05/14 22:30 UTC NOAA

UMMS 142230Z 07002MPS 8000 BKN055CB 12/12 Q1004 R13L/290060 R13R/////// NOSIG


Station Type Date Time Source
UMMS Decoded METAR 2021/05/14 22:30 UTC NOAA

Minsk, Belarus (UMMS) 53-56N 027-38E 231M
May 14, 2021 - 06:30 PM EDT / 2021.05.14 2230 UTC
Wind: from the ENE (070 degrees) at 4 MPH (4 KT):0
Visibility: 4 mile(s):0
Sky conditions: mostly cloudy
Weather: Cumulonimbus clouds observed
Temperature: 53 F (12 C)
Dew Point: 53 F (12 C)
Relative Humidity: 100%
Pressure (altimeter): 29.65 in. Hg (1004 hPa)
ob: UMMS 142230Z 07002MPS 8000 BKN055CB 12/12 Q1004 R13L/290060 R13R/////// NOSIG
cycle: 22

Station Type Date Time Source
UMMS TAF 2021/05/14 18:21 UTC NOAA

TAF TAF UMMS 141705Z 1418/1518 13005MPS 9999 BKN020
TEMPO 1418/1421 VRB14MPS 1500 TSRA SQ BKN004 SCT015CB
FM142100 VRB02MPS 4000 BR BKN005
TEMPO 1421/1506 0300 -SHRA FG BKN002 SCT020CB
BECMG 1506/1507 18005MPS 9999 NSW BKN015
TEMPO 1507/1518 VRB14MPS 1200 TSRA SQ BKN004 BKN020CB

Example: see airport list